^^
Meteo Knjazevac Station Historical Data
 
Daily Summary for October 31, 2020 Units:  Metric    English   Both
Daily Weekly Monthly Yearly Custom
  Current: High: Low: Average:
Temperature: 9.1 °C 9.3 °C 7.9 °C 8.6 °C
Dew Point: 6.9 °C 7.1 °C 6.2 °C 6.6 °C
Humidity: 86% 89% 85% 88%
Wind Speed: 1.6km/h 4.8km/h 0km/h 1.9km/h
Wind Gust: 9.7km/h 14.5km/h - -
WindESE - - SE
Pressure: 1020.9 hPa 1021.6 hPa 1020.9 hPa -
Precipitation: 0 mm      
Historical Graphs
 
 
Tabular Data for October 31, 2020
Time Temperature Dew Point Pressure Wind Wind Speed Wind Gust Humidity Rainfall Rate (Hourly) solar Conditions
00:00 9.3 °C 7.1 °C 1021.6 hPa NE 1.6 km/h 3.2 km/h 86% 0 mm 0 W/m2
00:10 9.2 °C 6.8 °C 1021.6 hPa SE 1.6 km/h 3.2 km/h 85% 0 mm 0 W/m2
00:20 9 °C 6.6 °C 1021.2 hPa SSE 1.6 km/h 6.4 km/h 85% 0 mm 0 W/m2
00:30 9 °C 6.6 °C 1021.6 hPa SE 1.6 km/h 8 km/h 85% 0 mm 0 W/m2
00:40 8.9 °C 6.5 °C 1021.6 hPa SSE 3.2 km/h 8 km/h 85% 0 mm 0 W/m2
00:50 8.9 °C 6.7 °C 1021.2 hPa Calm   4.8 km/h 86% 0 mm 0 W/m2
01:00 8.7 °C 6.8 °C 1021.2 hPa ESE 3.2 km/h 6.4 km/h 88% 0 mm 0 W/m2
01:10 8.5 °C 6.6 °C 1021.2 hPa Calm   6.4 km/h 88% 0 mm 0 W/m2
01:20 8.3 °C 6.4 °C 1021.2 hPa Calm   3.2 km/h 88% 0 mm 0 W/m2
01:30 8.3 °C 6.4 °C 1021.2 hPa Calm   6.4 km/h 88% 0 mm 0 W/m2
01:40 8.1 °C 6.4 °C 1021.2 hPa Calm   4.8 km/h 89% 0 mm 0 W/m2
01:50 8.1 °C 6.4 °C 1021.2 hPa Calm   4.8 km/h 89% 0 mm 0 W/m2
02:00 7.9 °C 6.2 °C 1020.9 hPa Calm   3.2 km/h 89% 0 mm 0 W/m2
02:10 7.9 °C 6.2 °C 1021.2 hPa SE 1.6 km/h 8 km/h 89% 0 mm 0 W/m2
02:20 7.9 °C 6.2 °C 1020.9 hPa ESE 3.2 km/h 11.3 km/h 89% 0 mm 0 W/m2
02:30 7.9 °C 6.2 °C 1021.2 hPa East 3.2 km/h 8 km/h 89% 0 mm 0 W/m2
02:40 8 °C 6.3 °C 1021.2 hPa Calm   6.4 km/h 89% 0 mm 0 W/m2
02:50 8.1 °C 6.4 °C 1020.9 hPa ESE 4.8 km/h 9.7 km/h 89% 0 mm 0 W/m2
03:00 8.2 °C 6.5 °C 1020.9 hPa East 3.2 km/h 9.7 km/h 89% 0 mm 0 W/m2
03:10 8.3 °C 6.6 °C 1021.2 hPa SSE 3.2 km/h 9.7 km/h 89% 0 mm 0 W/m2
03:20 8.3 °C 6.6 °C 1020.9 hPa East 4.8 km/h 9.7 km/h 89% 0 mm 0 W/m2
03:30 8.4 °C 6.5 °C 1020.9 hPa SE 1.6 km/h 9.7 km/h 88% 0 mm 0 W/m2
03:40 8.6 °C 6.7 °C 1021.2 hPa East 1.6 km/h 9.7 km/h 88% 0 mm 0 W/m2
03:50 8.7 °C 6.8 °C 1021.2 hPa South 1.6 km/h 6.4 km/h 88% 0 mm 0 W/m2
04:00 8.8 °C 6.9 °C 1021.2 hPa ESE 4.8 km/h 14.5 km/h 88% 0 mm 0 W/m2
04:10 8.9 °C 7 °C 1021.2 hPa SE 3.2 km/h 12.9 km/h 88% 0 mm 0 W/m2
04:20 8.9 °C 6.7 °C 1020.9 hPa South 1.6 km/h 8 km/h 86% 0 mm 0 W/m2
04:30 9 °C 6.8 °C 1020.9 hPa South 3.2 km/h 8 km/h 86% 0 mm 0 W/m2
04:40 9.1 °C 6.9 °C 1020.9 hPa SSE 3.2 km/h 12.9 km/h 86% 0 mm 0 W/m2
04:50 9.1 °C 6.9 °C 1020.9 hPa ESE 1.6 km/h 9.7 km/h 86% 0 mm 0 W/m2
Knjazevac, Serbia
Compliments of Weather Underground - 2 mb